^^
Your Local Weather - Clay, NY Station Historical Data
Daily Summary for April 30, 2017 Units:  English    Metric   Both
« Previous Day
Next Day »
Daily Weekly Monthly Yearly Custom
  High: Low: Average:
Temperature: 59.5 °F 38.6 °F 48.1 °F
Dew Point: 42.8 °F 29.3 °F 37.1 °F
Humidity: 81% 53% 66%
Wind Speed: 7.0mph 0.0mph 2.7mph
Wind Gust: 11.0mph - -
Wind- - ESE
Pressure: 30.27 in 29.90 in -
Precipitation: 0.00 in    
Historical Graphs
 
 
Tabular Data for April 30, 2017
Time Temperature Dew Point Pressure Wind Wind Speed Wind Gust Humidity Rainfall Rate (Hourly) solar
00:04 45.5 °F 34.0 °F 30.21 in Calm     64% 0.00 in 0 W/m2
00:10 45.4 °F 33.9 °F 30.21 in Calm     64% 0.00 in 0 W/m2
00:16 45.2 °F 34.1 °F 30.21 in Calm     65% 0.00 in 0 W/m2
00:22 44.9 °F 34.2 °F 30.21 in Calm     66% 0.00 in 0 W/m2
00:28 44.6 °F 33.9 °F 30.21 in Calm   1.0 mph 66% 0.00 in 0 W/m2
00:33 44.4 °F 34.5 °F 30.21 in Calm   1.0 mph 68% 0.00 in 0 W/m2
00:40 44.1 °F 34.6 °F 30.20 in Calm     69% 0.00 in 0 W/m2
00:46 43.6 °F 34.5 °F 30.20 in Calm     70% 0.00 in 0 W/m2
00:52 43.3 °F 34.5 °F 30.21 in Calm     71% 0.00 in 0 W/m2
00:58 43.0 °F 34.9 °F 30.21 in Calm     73% 0.00 in 0 W/m2
01:04 42.8 °F 34.4 °F 30.21 in Calm     72% 0.00 in 0 W/m2
01:10 42.6 °F 34.5 °F 30.22 in Calm     73% 0.00 in 0 W/m2
01:16 42.5 °F 34.5 °F 30.22 in Calm     73% 0.00 in 0 W/m2
01:22 42.3 °F 34.6 °F 30.22 in Calm     74% 0.00 in 0 W/m2
01:28 42.4 °F 34.7 °F 30.22 in Calm     74% 0.00 in 0 W/m2
01:34 42.3 °F 34.6 °F 30.22 in Calm     74% 0.00 in 0 W/m2
01:40 42.1 °F 34.4 °F 30.22 in Calm     74% 0.00 in 0 W/m2
01:46 41.9 °F 34.6 °F 30.22 in Calm   1.0 mph 75% 0.00 in 0 W/m2
01:52 41.7 °F 34.7 °F 30.22 in Calm     76% 0.00 in 0 W/m2
01:58 41.5 °F 34.5 °F 30.22 in Calm     76% 0.00 in 0 W/m2
02:04 41.3 °F 34.6 °F 30.22 in Calm     77% 0.00 in 0 W/m2
02:10 41.2 °F 34.5 °F 30.22 in Calm     77% 0.00 in 0 W/m2
02:16 41.1 °F 34.8 °F 30.22 in Calm     78% 0.00 in 0 W/m2
02:22 41.0 °F 34.7 °F 30.22 in Calm   1.0 mph 78% 0.00 in 0 W/m2
02:28 41.0 °F 35.0 °F 30.21 in WNW 1.0 mph 1.0 mph 79% 0.00 in 0 W/m2
02:34 41.1 °F 35.1 °F 30.21 in WNW 1.0 mph 1.0 mph 79% 0.00 in 0 W/m2
02:40 41.1 °F 35.1 °F 30.21 in North 1.0 mph 3.0 mph 79% 0.00 in 0 W/m2
02:46 41.1 °F 35.1 °F 30.21 in NNE 2.0 mph 3.0 mph 79% 0.00 in 0 W/m2
02:52 41.1 °F 35.1 °F 30.21 in NNE 2.0 mph 3.0 mph 79% 0.00 in 0 W/m2
02:58 41.0 °F 35.0 °F 30.21 in NNE 1.0 mph 3.0 mph 79% 0.00 in 0 W/m2
03:04 40.9 °F 34.9 °F 30.21 in NNE 1.0 mph 3.0 mph 79% 0.00 in 0 W/m2
03:10 40.8 °F 34.8 °F 30.21 in NNE 2.0 mph 3.0 mph 79% 0.00 in 0 W/m2
03:16 40.7 °F 34.7 °F 30.21 in NNE 2.0 mph 3.0 mph 79% 0.00 in 0 W/m2
03:22 40.6 °F 34.6 °F 30.21 in NNE 2.0 mph 2.0 mph 79% 0.00 in 0 W/m2
03:28 40.4 °F 34.4 °F 30.21 in NNE 2.0 mph 2.0 mph 79% 0.00 in 0 W/m2
03:34 40.3 °F 34.3 °F 30.21 in North 1.0 mph 2.0 mph 79% 0.00 in 0 W/m2
03:40 40.2 °F 33.9 °F 30.20 in North 1.0 mph 1.0 mph 78% 0.00 in 0 W/m2
03:46 40.0 °F 34.0 °F 30.21 in North 1.0 mph 2.0 mph 79% 0.00 in 0 W/m2
03:52 39.9 °F 33.6 °F 30.21 in North 1.0 mph 2.0 mph 78% 0.00 in 0 W/m2
03:58 39.8 °F 33.8 °F 30.21 in North 1.0 mph 2.0 mph 79% 0.00 in 0 W/m2
04:04 39.6 °F 33.3 °F 30.21 in North 1.0 mph 3.0 mph 78% 0.00 in 0 W/m2
04:10 39.4 °F 33.4 °F 30.21 in North 1.0 mph 2.0 mph 79% 0.00 in 0 W/m2
04:16 39.3 °F 33.0 °F 30.21 in North 1.0 mph 2.0 mph 78% 0.00 in 0 W/m2
04:22 39.2 °F 33.2 °F 30.20 in North 1.0 mph 3.0 mph 79% 0.00 in 0 W/m2
04:28 39.2 °F 32.9 °F 30.21 in NNE 2.0 mph 3.0 mph 78% 0.00 in 0 W/m2
04:34 39.3 °F 33.0 °F 30.21 in NNE 1.0 mph 2.0 mph 78% 0.00 in 0 W/m2
04:40 39.3 °F 33.0 °F 30.20 in Calm   2.0 mph 78% 0.00 in 0 W/m2
04:46 39.2 °F 32.9 °F 30.19 in Calm   2.0 mph 78% 0.00 in 0 W/m2
04:52 39.1 °F 32.8 °F 30.20 in Calm     78% 0.00 in 0 W/m2
04:58 39.0 °F 33.0 °F 30.21 in Calm     79% 0.00 in 0 W/m2
05:04 39.0 °F 33.0 °F 30.21 in Calm     79% 0.00 in 0 W/m2
05:10 38.9 °F 32.9 °F 30.22 in Calm     79% 0.00 in 0 W/m2
05:16 38.8 °F 33.2 °F 30.22 in Calm     80% 0.00 in 0 W/m2
05:22 38.7 °F 33.1 °F 30.21 in Calm     80% 0.00 in 0 W/m2
05:28 38.6 °F 33.3 °F 30.21 in Calm     81% 0.00 in 0 W/m2
05:34 38.8 °F 33.5 °F 30.21 in Calm   3.0 mph 81% 0.00 in 0 W/m2
05:40 39.6 °F 32.3 °F 30.20 in ENE 2.0 mph 2.0 mph 75% 0.00 in 0 W/m2
05:46 40.4 °F 31.0 °F 30.20 in ENE 2.0 mph 3.0 mph 69% 0.00 in 0 W/m2
05:52 41.0 °F 30.1 °F 30.21 in ENE 3.0 mph 3.0 mph 65% 0.00 in 0 W/m2
05:58 41.3 °F 29.6 °F 30.22 in SSE 2.0 mph 4.0 mph 63% 0.00 in 5 W/m2
06:04 41.3 °F 29.3 °F 30.23 in ENE 1.0 mph 2.0 mph 62% 0.00 in 7 W/m2
06:10 41.4 °F 29.3 °F 30.23 in NNE 1.0 mph 2.0 mph 62% 0.00 in 11 W/m2
06:16 41.5 °F 29.4 °F 30.23 in East 1.0 mph 4.0 mph 62% 0.00 in 16 W/m2
06:22 41.5 °F 29.4 °F 30.22 in ENE 2.0 mph 2.0 mph 62% 0.00 in 18 W/m2
06:28 41.7 °F 29.6 °F 30.22 in ENE 2.0 mph 2.0 mph 62% 0.00 in 18 W/m2
06:34 41.9 °F 29.4 °F 30.23 in SE 3.0 mph 3.0 mph 61% 0.00 in 18 W/m2
06:40 41.9 °F 30.2 °F 30.23 in SE 2.0 mph 2.0 mph 63% 0.00 in 19 W/m2
06:46 42.0 °F 29.9 °F 30.22 in ENE 1.0 mph 3.0 mph 62% 0.00 in 25 W/m2
06:52 41.9 °F 30.6 °F 30.22 in SE 2.0 mph 4.0 mph 64% 0.00 in 37 W/m2
06:58 42.0 °F 30.7 °F 30.23 in East 1.0 mph 6.0 mph 64% 0.00 in 62 W/m2
07:04 42.3 °F 30.6 °F 30.22 in East 1.0 mph 3.0 mph 63% 0.00 in 84 W/m2
07:10 42.6 °F 30.9 °F 30.23 in ENE 2.0 mph 2.0 mph 63% 0.00 in 98 W/m2
07:16 42.9 °F 30.8 °F 30.23 in East 2.0 mph 3.0 mph 62% 0.00 in 102 W/m2
07:22 43.2 °F 31.1 °F 30.23 in NE 1.0 mph 3.0 mph 62% 0.00 in 88 W/m2
07:28 43.3 °F 31.5 °F 30.22 in ESE 2.0 mph 3.0 mph 63% 0.00 in 72 W/m2
07:34 43.4 °F 32.0 °F 30.23 in ENE 2.0 mph 2.0 mph 64% 0.00 in 91 W/m2
07:40 43.5 °F 31.7 °F 30.22 in SE 2.0 mph 3.0 mph 63% 0.00 in 111 W/m2
07:46 43.7 °F 31.9 °F 30.22 in SE 2.0 mph 3.0 mph 63% 0.00 in 107 W/m2
07:52 43.8 °F 32.0 °F 30.22 in East 2.0 mph 2.0 mph 63% 0.00 in 128 W/m2
07:58 43.8 °F 32.0 °F 30.21 in NE 3.0 mph 5.0 mph 63% 0.00 in 163 W/m2
08:04 43.8 °F 32.0 °F 30.21 in NNE 3.0 mph 5.0 mph 63% 0.00 in 195 W/m2
08:10 44.0 °F 32.2 °F 30.22 in NNE 3.0 mph 3.0 mph 63% 0.00 in 149 W/m2
08:16 44.0 °F 31.8 °F 30.22 in ENE 3.0 mph 6.0 mph 62% 0.00 in 141 W/m2
08:22 44.1 °F 31.9 °F 30.21 in NE 3.0 mph 5.0 mph 62% 0.00 in 58 W/m2
08:28 43.8 °F 31.2 °F 30.21 in East 2.0 mph 5.0 mph 61% 0.00 in 46 W/m2
08:34 43.5 °F 31.3 °F 30.21 in NE 3.0 mph 5.0 mph 62% 0.00 in 35 W/m2
08:40 43.5 °F 31.7 °F 30.22 in NE 3.0 mph 5.0 mph 63% 0.00 in 49 W/m2
08:46 43.4 °F 32.0 °F 30.18 in ENE 4.0 mph 7.0 mph 64% 0.00 in 72 W/m2
08:52 43.3 °F 31.9 °F 30.21 in North 4.0 mph 4.0 mph 64% 0.00 in 116 W/m2
08:58 43.4 °F 33.5 °F 30.27 in North 4.0 mph 8.0 mph 68% 0.00 in 141 W/m2
09:04 43.4 °F 32.8 °F 30.26 in NNW 4.0 mph 4.0 mph 66% 0.00 in 162 W/m2
09:10 43.5 °F 33.3 °F 30.27 in North 4.0 mph 4.0 mph 67% 0.00 in 69 W/m2
09:16 43.4 °F 32.8 °F 30.27 in North 4.0 mph 5.0 mph 66% 0.00 in 35 W/m2
09:22 43.1 °F 32.1 °F 30.25 in North 5.0 mph 9.0 mph 65% 0.00 in 83 W/m2
09:28 43.1 °F 32.1 °F 30.24 in NNE 5.0 mph 9.0 mph 65% 0.00 in 165 W/m2
09:34 43.4 °F 32.4 °F 30.24 in NW 4.0 mph 5.0 mph 65% 0.00 in 142 W/m2
09:40 43.6 °F 31.8 °F 30.24 in North 4.0 mph 4.0 mph 63% 0.00 in 165 W/m2
09:46 43.8 °F 32.0 °F 30.23 in NE 4.0 mph 4.0 mph 63% 0.00 in 179 W/m2
09:52 44.0 °F 32.2 °F 30.21 in ENE 4.0 mph 4.0 mph 63% 0.00 in 257 W/m2
09:58 44.8 °F 32.2 °F 30.21 in ENE 4.0 mph 5.0 mph 61% 0.00 in 469 W/m2
10:04 45.7 °F 33.4 °F 30.21 in SE 4.0 mph 4.0 mph 62% 0.00 in 360 W/m2
10:10 45.5 °F 32.0 °F 30.19 in ENE 3.0 mph 3.0 mph 59% 0.00 in 139 W/m2
10:16 45.5 °F 32.0 °F 30.19 in East 4.0 mph 7.0 mph 59% 0.00 in 149 W/m2
10:22 45.8 °F 32.7 °F 30.18 in ENE 4.0 mph 4.0 mph 60% 0.00 in 183 W/m2
10:28 46.1 °F 33.0 °F 30.18 in NE 4.0 mph 4.0 mph 60% 0.00 in 153 W/m2
10:34 46.4 °F 33.3 °F 30.19 in NW 3.0 mph 5.0 mph 60% 0.00 in 155 W/m2
10:40 46.7 °F 33.1 °F 30.19 in ENE 2.0 mph 2.0 mph 59% 0.00 in 111 W/m2
10:46 46.7 °F 32.7 °F 30.20 in NE 2.0 mph 3.0 mph 58% 0.00 in 51 W/m2
10:52 46.7 °F 34.0 °F 30.20 in East 3.0 mph 3.0 mph 61% 0.00 in 121 W/m2
10:58 46.8 °F 34.9 °F 30.20 in NNE 2.0 mph 4.0 mph 63% 0.00 in 134 W/m2
11:04 46.9 °F 34.1 °F 30.22 in ENE 3.0 mph 3.0 mph 61% 0.00 in 137 W/m2
11:10 47.2 °F 35.6 °F 30.26 in WNW 2.0 mph 2.0 mph 64% 0.00 in 86 W/m2
11:16 47.2 °F 35.6 °F 30.18 in East 3.0 mph 3.0 mph 64% 0.00 in 287 W/m2
11:22 47.7 °F 35.3 °F 30.20 in East 2.0 mph 3.0 mph 62% 0.00 in 137 W/m2
11:28 47.8 °F 35.0 °F 30.20 in SSE 2.0 mph 3.0 mph 61% 0.00 in 116 W/m2
11:34 47.7 °F 35.3 °F 30.26 in WSW 2.0 mph 2.0 mph 62% 0.00 in 79 W/m2
11:40 47.6 °F 36.0 °F 30.21 in ESE 1.0 mph 2.0 mph 64% 0.00 in 199 W/m2
11:46 47.8 °F 35.0 °F 30.23 in SE 1.0 mph 3.0 mph 61% 0.00 in 165 W/m2
11:52 48.0 °F 35.6 °F 30.21 in East 1.0 mph 2.0 mph 62% 0.00 in 246 W/m2
11:58 48.4 °F 36.0 °F 30.20 in ENE 2.0 mph 3.0 mph 62% 0.00 in 334 W/m2
12:04 49.0 °F 36.1 °F 30.18 in ENE 3.0 mph 4.0 mph 61% 0.00 in 227 W/m2
12:10 49.3 °F 37.2 °F 30.16 in SE 3.0 mph 4.0 mph 63% 0.00 in 397 W/m2
12:16 50.6 °F 39.3 °F 30.15 in SE 4.0 mph 6.0 mph 65% 0.00 in 612 W/m2
12:22 50.7 °F 37.7 °F 30.15 in ESE 5.0 mph 7.0 mph 61% 0.00 in 522 W/m2
12:28 50.4 °F 38.7 °F 30.15 in ENE 6.0 mph 10.0 mph 64% 0.00 in 501 W/m2
12:34 51.4 °F 39.6 °F 30.14 in SE 6.0 mph 10.0 mph 64% 0.00 in 392 W/m2
12:40 51.3 °F 39.5 °F 30.13 in South 5.0 mph 11.0 mph 64% 0.00 in 239 W/m2
12:46 50.7 °F 39.0 °F 30.13 in ESE 6.0 mph 11.0 mph 64% 0.00 in 148 W/m2
12:52 50.5 °F 39.6 °F 30.14 in ENE 5.0 mph 5.0 mph 66% 0.00 in 125 W/m2
12:58 50.6 °F 40.0 °F 30.13 in SE 3.0 mph 5.0 mph 67% 0.00 in 142 W/m2
13:04 51.0 °F 40.0 °F 30.12 in East 3.0 mph 5.0 mph 66% 0.00 in 186 W/m2
13:10 51.3 °F 40.3 °F 30.12 in ESE 3.0 mph 4.0 mph 66% 0.00 in 178 W/m2
13:16 51.5 °F 39.3 °F 30.12 in East 4.0 mph 5.0 mph 63% 0.00 in 179 W/m2
13:22 51.8 °F 40.0 °F 30.12 in East 4.0 mph 5.0 mph 64% 0.00 in 239 W/m2
13:28 52.3 °F 39.7 °F 30.12 in SE 4.0 mph 7.0 mph 62% 0.00 in 171 W/m2
13:34 52.5 °F 39.8 °F 30.12 in ENE 3.0 mph 3.0 mph 62% 0.00 in 193 W/m2
13:40 52.7 °F 39.6 °F 30.11 in ENE 3.0 mph 3.0 mph 61% 0.00 in 195 W/m2
13:46 53.0 °F 40.3 °F 30.11 in SSE 3.0 mph 5.0 mph 62% 0.00 in 206 W/m2
13:52 53.3 °F 40.2 °F 30.10 in ESE 3.0 mph 4.0 mph 61% 0.00 in 230 W/m2
13:58 53.5 °F 39.9 °F 30.10 in ESE 4.0 mph 7.0 mph 60% 0.00 in 288 W/m2
14:04 53.8 °F 40.2 °F 30.10 in East 3.0 mph 5.0 mph 60% 0.00 in 269 W/m2
14:10 54.1 °F 40.1 °F 30.09 in SE 3.0 mph 6.0 mph 59% 0.00 in 234 W/m2
14:16 53.9 °F 39.5 °F 30.09 in East 4.0 mph 6.0 mph 58% 0.00 in 229 W/m2
14:22 54.2 °F 39.3 °F 30.09 in ESE 3.0 mph 3.0 mph 57% 0.00 in 229 W/m2
14:28 54.2 °F 39.7 °F 30.08 in East 4.0 mph 5.0 mph 58% 0.00 in 260 W/m2
14:34 54.7 °F 40.6 °F 30.08 in ESE 4.0 mph 5.0 mph 59% 0.00 in 283 W/m2
14:40 55.2 °F 40.2 °F 30.09 in SE 3.0 mph 5.0 mph 57% 0.00 in 276 W/m2
14:46 55.4 °F 40.4 °F 30.09 in SE 4.0 mph 7.0 mph 57% 0.00 in 272 W/m2
14:52 55.5 °F 40.0 °F 30.09 in East 5.0 mph 6.0 mph 56% 0.00 in 241 W/m2
14:58 55.4 °F 39.5 °F 30.09 in SSE 3.0 mph 6.0 mph 55% 0.00 in 137 W/m2
15:04 55.4 °F 39.5 °F 30.09 in ENE 3.0 mph 4.0 mph 55% 0.00 in 156 W/m2
15:10 55.4 °F 40.0 °F 30.08 in ESE 3.0 mph 3.0 mph 56% 0.00 in 276 W/m2
15:16 56.0 °F 40.1 °F 30.07 in ENE 3.0 mph 6.0 mph 55% 0.00 in 236 W/m2
15:22 56.1 °F 39.7 °F 30.07 in East 4.0 mph 6.0 mph 54% 0.00 in 158 W/m2
15:28 56.5 °F 41.0 °F 30.06 in East 4.0 mph 6.0 mph 56% 0.00 in 290 W/m2
15:34 56.8 °F 40.8 °F 30.06 in NNW 4.0 mph 5.0 mph 55% 0.00 in 313 W/m2
15:40 57.0 °F 41.4 °F 30.05 in SE 5.0 mph 5.0 mph 56% 0.00 in 271 W/m2
15:46 57.0 °F 40.5 °F 30.06 in SSE 4.0 mph 5.0 mph 54% 0.00 in 165 W/m2
15:52 57.0 °F 41.0 °F 30.06 in East 4.0 mph 4.0 mph 55% 0.00 in 185 W/m2
15:58 57.2 °F 41.2 °F 30.04 in ENE 3.0 mph 7.0 mph 55% 0.00 in 248 W/m2
16:04 57.5 °F 41.9 °F 30.04 in SSE 4.0 mph 7.0 mph 56% 0.00 in 243 W/m2
16:10 57.6 °F 41.1 °F 30.04 in ENE 4.0 mph 4.0 mph 54% 0.00 in 207 W/m2
16:16 57.7 °F 42.1 °F 30.04 in ESE 4.0 mph 5.0 mph 56% 0.00 in 276 W/m2
16:22 58.3 °F 42.2 °F 30.04 in ESE 5.0 mph 7.0 mph 55% 0.00 in 334 W/m2
16:28 59.2 °F 42.1 °F 30.03 in ESE 5.0 mph 7.0 mph 53% 0.00 in 591 W/m2
16:34 59.2 °F 42.1 °F 30.02 in East 5.0 mph 10.0 mph 53% 0.00 in 469 W/m2
16:40 58.9 °F 42.3 °F 30.03 in SSE 5.0 mph 5.0 mph 54% 0.00 in 281 W/m2
16:46 59.5 °F 42.3 °F 30.02 in East 5.0 mph 5.0 mph 53% 0.00 in 258 W/m2
16:52 58.5 °F 42.8 °F 30.01 in East 5.0 mph 7.0 mph 56% 0.00 in 438 W/m2
16:58 57.6 °F 42.0 °F 30.02 in North 4.0 mph 7.0 mph 56% 0.00 in 237 W/m2
17:04 56.7 °F 41.6 °F 30.02 in ENE 4.0 mph 7.0 mph 57% 0.00 in 253 W/m2
17:10 57.0 °F 42.4 °F 30.00 in East 4.0 mph 4.0 mph 58% 0.00 in 410 W/m2
17:16 56.8 °F 42.2 °F 30.01 in SE 4.0 mph 9.0 mph 58% 0.00 in 531 W/m2
17:22 56.2 °F 41.2 °F 30.01 in SE 6.0 mph 6.0 mph 57% 0.00 in 454 W/m2
17:28 55.6 °F 41.0 °F 30.01 in East 7.0 mph 11.0 mph 58% 0.00 in 236 W/m2
17:34 55.1 °F 41.9 °F 30.01 in ENE 7.0 mph 9.0 mph 61% 0.00 in 195 W/m2
17:40 55.0 °F 40.9 °F 30.01 in NE 4.0 mph 10.0 mph 59% 0.00 in 160 W/m2
17:46 54.7 °F 41.5 °F 30.00 in ENE 5.0 mph 10.0 mph 61% 0.00 in 204 W/m2
17:52 55.0 °F 41.8 °F 29.99 in ENE 5.0 mph 8.0 mph 61% 0.00 in 221 W/m2
17:58 55.4 °F 41.7 °F 29.99 in NNE 5.0 mph 8.0 mph 60% 0.00 in 120 W/m2
18:04 55.2 °F 41.5 °F 29.99 in East 5.0 mph 6.0 mph 60% 0.00 in 91 W/m2
18:10 55.2 °F 41.1 °F 30.00 in East 5.0 mph 5.0 mph 59% 0.00 in 90 W/m2
18:16 55.3 °F 42.1 °F 29.99 in ENE 5.0 mph 7.0 mph 61% 0.00 in 72 W/m2
18:22 55.0 °F 41.4 °F 29.99 in East 4.0 mph 7.0 mph 60% 0.00 in 63 W/m2
18:28 54.9 °F 42.1 °F 29.99 in East 4.0 mph 7.0 mph 62% 0.00 in 74 W/m2
18:34 54.7 °F 41.5 °F 29.98 in East 5.0 mph 5.0 mph 61% 0.00 in 58 W/m2
18:40 54.6 °F 41.8 °F 29.98 in East 5.0 mph 7.0 mph 62% 0.00 in 40 W/m2
18:46 54.4 °F 42.1 °F 29.98 in East 4.0 mph 7.0 mph 63% 0.00 in 32 W/m2
18:52 54.2 °F 41.9 °F 29.97 in East 4.0 mph 5.0 mph 63% 0.00 in 28 W/m2
18:58 54.1 °F 42.6 °F 29.97 in ENE 3.0 mph 5.0 mph 65% 0.00 in 97 W/m2
19:04 54.3 °F 41.6 °F 29.97 in ENE 3.0 mph 7.0 mph 62% 0.00 in 63 W/m2
19:10 54.2 °F 41.9 °F 29.97 in ENE 4.0 mph 4.0 mph 63% 0.00 in 39 W/m2
19:16 54.1 °F 41.8 °F 29.98 in ENE 4.0 mph 9.0 mph 63% 0.00 in 32 W/m2
19:22 54.0 °F 41.7 °F 29.96 in ENE 4.0 mph 5.0 mph 63% 0.00 in 28 W/m2
19:28 53.9 °F 42.0 °F 29.96 in ENE 5.0 mph 8.0 mph 64% 0.00 in 25 W/m2
19:34 53.8 °F 41.5 °F 29.96 in ENE 3.0 mph 4.0 mph 63% 0.00 in 18 W/m2
19:40 53.8 °F 41.1 °F 29.96 in ENE 3.0 mph 3.0 mph 62% 0.00 in 14 W/m2
19:46 53.7 °F 41.8 °F 29.96 in East 4.0 mph 5.0 mph 64% 0.00 in 11 W/m2
19:52 53.6 °F 41.3 °F 29.96 in ENE 4.0 mph 8.0 mph 63% 0.00 in 9 W/m2
19:58 53.3 °F 41.0 °F 29.96 in NE 4.0 mph 9.0 mph 63% 0.00 in 5 W/m2
20:04 53.1 °F 40.8 °F 29.96 in ENE 4.0 mph 9.0 mph 63% 0.00 in 0 W/m2
20:10 52.9 °F 41.0 °F 29.96 in East 4.0 mph 7.0 mph 64% 0.00 in 0 W/m2
20:16 52.7 °F 40.9 °F 29.96 in ENE 4.0 mph 7.0 mph 64% 0.00 in 0 W/m2
20:22 52.6 °F 41.2 °F 29.96 in ENE 4.0 mph 5.0 mph 65% 0.00 in 0 W/m2
20:28 52.5 °F 41.1 °F 29.96 in East 5.0 mph 11.0 mph 65% 0.00 in 0 W/m2
20:36 52.4 °F 41.0 °F 29.95 in ENE 5.0 mph 9.0 mph 65% 0.00 in 0 W/m2
20:42 52.2 °F 40.8 °F 29.95 in ENE 4.0 mph 4.0 mph 65% 0.00 in 0 W/m2
20:48 52.1 °F 40.7 °F 29.95 in ESE 4.0 mph 7.0 mph 65% 0.00 in 0 W/m2
20:54 52.1 °F 40.7 °F 29.96 in NNW 4.0 mph 5.0 mph 65% 0.00 in 0 W/m2
21:00 52.1 °F 40.7 °F 29.96 in NNE 3.0 mph 3.0 mph 65% 0.00 in 0 W/m2
21:06 52.1 °F 41.1 °F 29.96 in ENE 3.0 mph 6.0 mph 66% 0.00 in 0 W/m2
21:12 52.1 °F 41.1 °F 29.95 in ESE 4.0 mph 5.0 mph 66% 0.00 in 0 W/m2
21:18 52.0 °F 41.0 °F 29.95 in East 4.0 mph 8.0 mph 66% 0.00 in 0 W/m2
21:24 52.0 °F 41.0 °F 29.96 in East 4.0 mph 5.0 mph 66% 0.00 in 0 W/m2
21:30 52.0 °F 41.4 °F 29.96 in NE 3.0 mph 3.0 mph 67% 0.00 in 0 W/m2
21:36 52.0 °F 41.4 °F 29.93 in East 3.0 mph 5.0 mph 67% 0.00 in 0 W/m2
21:42 51.7 °F 41.9 °F 29.92 in East 4.0 mph 6.0 mph 69% 0.00 in 0 W/m2
21:48 51.3 °F 42.2 °F 29.93 in ENE 4.0 mph 6.0 mph 71% 0.00 in 0 W/m2
21:54 50.9 °F 42.2 °F 29.93 in ENE 3.0 mph 8.0 mph 72% 0.00 in 0 W/m2
22:00 50.8 °F 42.5 °F 29.92 in ESE 2.0 mph 5.0 mph 73% 0.00 in 0 W/m2
22:06 50.7 °F 42.4 °F 29.93 in ENE 2.0 mph 5.0 mph 73% 0.00 in 0 W/m2
22:12 50.7 °F 42.4 °F 29.93 in ENE 1.0 mph 2.0 mph 73% 0.00 in 0 W/m2
22:18 50.5 °F 42.2 °F 29.93 in ENE 1.0 mph 2.0 mph 73% 0.00 in 0 W/m2
22:24 50.5 °F 42.2 °F 29.93 in NE 2.0 mph 3.0 mph 73% 0.00 in 0 W/m2
22:30 50.5 °F 42.5 °F 29.92 in East 2.0 mph 5.0 mph 74% 0.00 in 0 W/m2
22:36 50.4 °F 42.4 °F 29.92 in ENE 2.0 mph 5.0 mph 74% 0.00 in 0 W/m2
22:42 50.3 °F 42.0 °F 29.92 in East 3.0 mph 6.0 mph 73% 0.00 in 0 W/m2
22:48 50.3 °F 42.0 °F 29.92 in ENE 4.0 mph 6.0 mph 73% 0.00 in 0 W/m2
22:54 50.3 °F 41.6 °F 29.92 in ENE 3.0 mph 4.0 mph 72% 0.00 in 0 W/m2
23:00 50.2 °F 42.2 °F 29.92 in ENE 2.0 mph 2.0 mph 74% 0.00 in 0 W/m2
23:06 50.2 °F 41.9 °F 29.91 in East 3.0 mph 3.0 mph 73% 0.00 in 0 W/m2
23:12 50.3 °F 41.6 °F 29.91 in ENE 3.0 mph 5.0 mph 72% 0.00 in 0 W/m2
23:18 50.3 °F 42.0 °F 29.91 in ENE 3.0 mph 5.0 mph 73% 0.00 in 0 W/m2
23:24 50.3 °F 42.0 °F 29.91 in ENE 2.0 mph 6.0 mph 73% 0.00 in 0 W/m2
23:30 50.2 °F 41.9 °F 29.90 in East 2.0 mph 3.0 mph 73% 0.00 in 0 W/m2
23:36 50.2 °F 42.2 °F 29.90 in East 2.0 mph 3.0 mph 74% 0.00 in 0 W/m2
23:42 50.1 °F 42.1 °F 29.90 in NE 2.0 mph 3.0 mph 74% 0.00 in 0 W/m2
23:48 50.2 °F 42.2 °F 29.90 in East 3.0 mph 6.0 mph 74% 0.00 in 0 W/m2
23:54 50.2 °F 42.2 °F 29.90 in East 3.0 mph 5.0 mph 74% 0.00 in 0 W/m2
Country Meadow, Clay, NY, USA
Compliments of Weather Underground - 2 mb